Charter Quote
Worldwide +1-877-727-2538 Call
Select Language Lang
SAFETY RELIABILITY EXPERIENCE

Private Jet Charter Services - Xuzhou Guanyin Airport (ZSXZ)

Paramount Business Jets offers private jet charter flights and luxury airliner charters to and from Xuzhou Guanyin Airport.

AIRPORT INFORMATION
ICAOZSXZ
LOCATIONXuzhou, China
FACILITY TYPEAIRPORT

At Paramount Business Jets you can hire chartered private jets to and from Xuzhou Guanyin Airport with as little as 4 hours of notice. All flights booked via Paramount Business Jets are operated by certified direct air carriers that meet and exceed the FAA part 135 and 121 protocol or a foreign equivalent safety authority. Furthermore, Paramount Business Jets subscribes to ARGUS for their third party safety checks of operators, aircraft, and crews prior each and every flight to and from Xuzhou Guanyin Airport and worldwide.

  • Quote a trip using Xuzhou Guanyin Airport or call us 24/7 - 365 days a year at +1-877-727-2538.
Questions? Call +1-877-727-2538

METAR Weather Data at Xuzhou Guanyin Airport, ZSXZ

STATIONZSXZ
OBSERVEDSun Mar 22, 11:00 UTC
NOWTue Jul 16, 04:22 UTC
AGE37841:22 hr ago
WINDENE at 16 mph
VISIBILITYgreater than 7 miles
CLOUDSclear skies
TEMP55°F (13°C)
DEWPT37°F (3°C)
HUMIDITY51%
BAROMETER1024 hPa (30.24 in Hg)
METARZSXZ 221100Z 07007MPS CAVOK 13/03 Q1024 NOSIG

Call us on +1-877-727-2538 (24 Hours) to Hire a Private Jet or Get a Quick Quote.

Find Airports Near any Location

Processing
...